Flight Briefing for CPX225

Departure Arrival
Ted Stevens Anchorage International Airport (PANC)
Click to view FAA NOTAMS
Los Angeles International Airport (KLAX)
Click to view FAA NOTAMS
Departure Time Arrival Time
0000 UTC 0425 UTC
Aircraft Distance
B767-300BDSF 2090nm
Departure METAR Arrival METAR
PANC 271053Z 15015G23KT 10SM FEW080 SCT110 SCT220 11/05 A2980 RMK AO2 PK WND 14031/1000 SLP092 T01110050 KLAX 271053Z 01007KT 10SM FEW020 FEW070 12/07 A2996 RMK AO2 SLP144 T01170072
Suggested Route
MDO B453 KURTT B453 KYLLE B453 BOXER ENI OAK TILLT HUULL HUULL2


View recent IFR Routes data
Notes



Charts and Procedures

Charts for PANC
No chart available
Charts for KLAX
No chart available

Windy.com Weather Map